Time,TemperatureF,DewpointF,PressureIn,WindDirection,WindDirectionDegrees,WindSpeedMPH,WindSpeedGustMPH,Humidity,HourlyPrecipIn,Conditions,Clouds,dailyrainin,SolarRadiationWatts/m^2,SoftwareType,DateUTC
2013-02-08 00:01:00,49.0,22.0,30.12,SSW,206,4.0,8.0,34,-99.99,,,-99.99,0.000000,,2013-02-08 07:01:00,
2013-02-08 00:11:00,50.0,22.0,30.12,SSW,212,4.0,7.0,33,-99.99,,,-99.99,0.000000,,2013-02-08 07:11:00,
2013-02-08 00:21:00,50.0,22.0,30.12,SSW,212,4.0,7.0,33,-99.99,,,-99.99,0.000000,,2013-02-08 07:21:00,
2013-02-08 00:32:00,48.0,22.0,30.12,SW,233,5.0,8.0,35,-99.99,,,-99.99,0.000000,,2013-02-08 07:32:00,
2013-02-08 00:42:00,49.0,22.0,30.12,WSW,243,5.0,8.0,34,-99.99,,,-99.99,0.000000,,2013-02-08 07:42:00,
2013-02-08 00:52:00,49.0,22.0,30.12,WSW,243,5.0,8.0,34,-99.99,,,-99.99,0.000000,,2013-02-08 07:52:00,
2013-02-08 01:01:00,47.0,22.0,30.12,SSW,194,5.0,8.0,37,-99.99,,,-99.99,0.000000,,2013-02-08 08:01:00,
2013-02-08 01:11:00,48.0,22.0,30.12,South,179,4.0,7.0,35,-99.99,,,-99.99,0.000000,,2013-02-08 08:11:00,
2013-02-08 01:21:00,48.0,22.0,30.12,South,179,4.0,7.0,35,-99.99,,,-99.99,0.000000,,2013-02-08 08:21:00,
2013-02-08 01:32:00,48.0,22.0,30.12,South,171,4.0,7.0,35,-99.99,,,-99.99,0.000000,,2013-02-08 08:32:00,
2013-02-08 01:42:00,48.0,22.0,30.12,South,181,4.0,7.0,36,-99.99,,,-99.99,0.000000,,2013-02-08 08:42:00,
2013-02-08 01:52:00,47.0,22.0,30.12,South,177,3.0,7.0,37,-99.99,,,-99.99,0.000000,,2013-02-08 08:52:00,
2013-02-08 02:03:00,47.0,22.0,30.12,South,177,3.0,7.0,37,-99.99,,,-99.99,0.000000,,2013-02-08 09:03:00,
2013-02-08 02:11:00,48.0,22.0,30.12,SSW,207,2.0,5.0,36,-99.99,,,-99.99,0.000000,,2013-02-08 09:11:00,
2013-02-08 02:21:00,48.0,22.0,30.12,SSW,207,2.0,5.0,36,-99.99,,,-99.99,0.000000,,2013-02-08 09:21:00,
2013-02-08 02:32:00,47.0,22.0,30.12,SSW,205,4.0,6.0,37,-99.99,,,-99.99,0.000000,,2013-02-08 09:32:00,
2013-02-08 02:42:00,46.0,23.0,30.12,South,190,4.0,10.0,39,-99.99,,,-99.99,0.000000,,2013-02-08 09:42:00,
2013-02-08 02:52:00,46.0,23.0,30.12,South,190,4.0,10.0,39,-99.99,,,-99.99,0.000000,,2013-02-08 09:52:00,
2013-02-08 03:01:00,47.0,23.0,30.11,South,171,4.0,11.0,38,-99.99,,,-99.99,0.000000,,2013-02-08 10:01:00,
2013-02-08 03:11:00,47.0,23.0,30.11,South,190,3.0,8.0,37,-99.99,,,-99.99,0.000000,,2013-02-08 10:11:00,
2013-02-08 03:22:00,47.0,23.0,30.11,South,190,3.0,8.0,37,-99.99,,,-99.99,0.000000,,2013-02-08 10:22:00,
2013-02-08 03:31:00,46.0,23.0,30.11,South,182,4.0,6.0,39,-99.99,,,-99.99,0.000000,,2013-02-08 10:31:00,
2013-02-08 03:42:00,46.0,23.0,30.11,SSE,159,3.0,5.0,40,-99.99,,,-99.99,0.000000,,2013-02-08 10:42:00,
2013-02-08 03:52:00,46.0,23.0,30.11,SSE,159,3.0,5.0,40,-99.99,,,-99.99,0.000000,,2013-02-08 10:52:00,
2013-02-08 04:01:00,45.0,23.0,30.11,SW,222,3.0,6.0,40,-99.99,,,-99.99,0.000000,,2013-02-08 11:01:00,
2013-02-08 04:11:00,43.0,23.0,30.11,SW,227,4.0,5.0,43,-99.99,,,-99.99,0.000000,,2013-02-08 11:11:00,
2013-02-08 04:21:00,43.0,23.0,30.11,SW,227,4.0,5.0,43,-99.99,,,-99.99,0.000000,,2013-02-08 11:21:00,
2013-02-08 04:32:00,43.0,23.0,30.11,SW,227,4.0,5.0,43,-99.99,,,-99.99,0.000000,,2013-02-08 11:32:00,
2013-02-08 04:42:00,43.0,23.0,30.10,SSW,195,6.0,7.0,45,-99.99,,,-99.99,0.000000,,2013-02-08 11:42:00,
2013-02-08 04:52:00,43.0,23.0,30.10,SSW,195,6.0,7.0,45,-99.99,,,-99.99,0.000000,,2013-02-08 11:52:00,
2013-02-08 05:02:00,43.0,23.0,30.10,SSW,195,6.0,7.0,45,-99.99,,,-99.99,0.000000,,2013-02-08 12:02:00,
2013-02-08 05:11:00,43.0,24.0,30.09,SSE,153,5.0,8.0,46,-99.99,,,-99.99,0.000000,,2013-02-08 12:11:00,
2013-02-08 05:22:00,43.0,24.0,30.09,SSE,153,5.0,8.0,46,-99.99,,,-99.99,0.000000,,2013-02-08 12:22:00,
2013-02-08 05:33:00,43.0,24.0,30.09,South,169,5.0,8.0,46,-99.99,,,-99.99,0.000000,,2013-02-08 12:33:00,
2013-02-08 05:42:00,43.0,24.0,30.10,SSE,155,5.0,8.0,46,-99.99,,,-99.99,0.000000,,2013-02-08 12:42:00,
2013-02-08 05:52:00,43.0,24.0,30.10,SSE,155,5.0,8.0,46,-99.99,,,-99.99,0.000000,,2013-02-08 12:52:00,
2013-02-08 06:01:00,43.0,24.0,30.10,SE,138,6.0,11.0,47,-99.99,,,-99.99,0.000000,,2013-02-08 13:01:00,
2013-02-08 06:11:00,43.0,25.0,30.10,SE,126,7.0,11.0,47,-99.99,,,-99.99,0.000000,,2013-02-08 13:11:00,
2013-02-08 06:22:00,43.0,25.0,30.10,SE,126,7.0,11.0,47,-99.99,,,-99.99,0.000000,,2013-02-08 13:22:00,
2013-02-08 06:32:00,42.0,25.0,30.09,ESE,119,9.0,13.0,49,-99.99,,,-99.99,0.000000,,2013-02-08 13:32:00,
2013-02-08 06:42:00,42.0,25.0,30.09,ESE,114,10.0,13.0,51,-99.99,,,-99.99,0.000000,,2013-02-08 13:42:00,
2013-02-08 06:52:00,42.0,25.0,30.09,ESE,114,10.0,13.0,51,-99.99,,,-99.99,0.000000,,2013-02-08 13:52:00,
2013-02-08 07:02:00,42.0,26.0,30.09,ESE,119,8.0,13.0,51,-99.99,,,-99.99,0.000000,,2013-02-08 14:02:00,
2013-02-08 07:11:00,41.0,25.0,30.10,SE,143,1.0,7.0,52,-99.99,,,-99.99,0.700000,,2013-02-08 14:11:00,
2013-02-08 07:22:00,41.0,25.0,30.10,SE,143,1.0,7.0,52,-99.99,,,-99.99,0.700000,,2013-02-08 14:22:00,
2013-02-08 07:32:00,41.0,26.0,30.10,SSE,157,1.0,5.0,54,-99.99,,,-99.99,4.180000,,2013-02-08 14:32:00,
2013-02-08 07:42:00,42.0,26.0,30.10,SSE,168,1.0,3.0,52,-99.99,,,-99.99,20.920000,,2013-02-08 14:42:00,
2013-02-08 07:52:00,42.0,26.0,30.10,SSE,168,1.0,3.0,52,-99.99,,,-99.99,20.920000,,2013-02-08 14:52:00,
2013-02-08 08:02:00,43.0,26.0,30.11,SSE,151,3.0,7.0,50,-99.99,,,-99.99,80.190002,,2013-02-08 15:02:00,
2013-02-08 08:11:00,44.0,27.0,30.11,SSE,147,4.0,6.0,49,-99.99,,,-99.99,131.800003,,2013-02-08 15:11:00,
2013-02-08 08:22:00,44.0,27.0,30.11,SSE,147,4.0,6.0,49,-99.99,,,-99.99,131.800003,,2013-02-08 15:22:00,
2013-02-08 08:32:00,45.0,28.0,30.11,SE,130,5.0,10.0,49,-99.99,,,-99.99,148.529999,,2013-02-08 15:32:00,
2013-02-08 08:42:00,47.0,28.0,30.11,ESE,121,9.0,14.0,48,-99.99,,,-99.99,229.419998,,2013-02-08 15:42:00,
2013-02-08 08:52:00,47.0,28.0,30.11,ESE,121,9.0,14.0,48,-99.99,,,-99.99,229.419998,,2013-02-08 15:52:00,
2013-02-08 09:00:00,49.0,29.0,30.11,ESE,122,10.0,15.0,46,-99.99,,,-99.99,353.549988,,2013-02-08 16:00:00,
2013-02-08 09:01:00,48.0,29.0,30.11,ESE,120,11.0,16.0,47,-99.99,,,-99.99,214.779999,,2013-02-08 16:01:00,
2013-02-08 09:11:00,48.0,29.0,30.11,ESE,119,11.0,15.0,47,-99.99,,,-99.99,262.200012,,2013-02-08 16:11:00,
2013-02-08 09:22:00,48.0,29.0,30.11,ESE,119,11.0,15.0,47,-99.99,,,-99.99,262.200012,,2013-02-08 16:22:00,
2013-02-08 09:32:00,49.0,29.0,30.11,ESE,122,10.0,15.0,46,-99.99,,,-99.99,353.549988,,2013-02-08 16:32:00,
2013-02-08 09:42:00,49.0,29.0,30.11,ESE,122,10.0,15.0,46,-99.99,,,-99.99,353.549988,,2013-02-08 16:42:00,
2013-02-08 09:52:00,49.0,29.0,30.11,ESE,122,10.0,15.0,46,-99.99,,,-99.99,353.549988,,2013-02-08 16:52:00,
2013-02-08 14:42:00,66.0,25.0,29.91,South,173,13.0,21.0,21,-99.99,,,-99.99,578.090027,,2013-02-08 21:42:00,
2013-02-08 14:52:00,66.0,25.0,29.91,South,173,13.0,21.0,21,-99.99,,,-99.99,578.090027,,2013-02-08 21:52:00,
2013-02-08 15:02:00,66.0,25.0,29.91,South,173,13.0,21.0,21,-99.99,,,-99.99,578.090027,,2013-02-08 22:02:00,
2013-02-08 15:11:00,66.0,24.0,29.89,South,183,12.0,22.0,19,-99.99,,,-99.99,532.760010,,2013-02-08 22:11:00,
2013-02-08 15:22:00,66.0,24.0,29.89,South,183,12.0,22.0,19,-99.99,,,-99.99,532.760010,,2013-02-08 22:22:00,
2013-02-08 15:32:00,67.0,24.0,29.89,South,170,13.0,21.0,19,-99.99,,,-99.99,520.210022,,2013-02-08 22:32:00,
2013-02-08 15:42:00,67.0,23.0,29.87,South,170,13.0,23.0,18,-99.99,,,-99.99,475.579987,,2013-02-08 22:42:00,
2013-02-08 15:52:00,67.0,23.0,29.87,South,170,13.0,23.0,18,-99.99,,,-99.99,475.579987,,2013-02-08 22:52:00,
2013-02-08 16:01:00,68.0,19.0,29.87,South,183,14.0,27.0,15,-99.99,,,-99.99,444.899994,,2013-02-08 23:01:00,
2013-02-08 16:11:00,68.0,15.0,29.86,SSW,204,14.0,24.0,12,-99.99,,,-99.99,347.269989,,2013-02-08 23:11:00,
2013-02-08 16:21:00,68.0,15.0,29.86,SSW,204,14.0,24.0,12,-99.99,,,-99.99,347.269989,,2013-02-08 23:21:00,
2013-02-08 16:32:00,67.0,17.0,29.86,SSW,201,13.0,21.0,14,-99.99,,,-99.99,194.559998,,2013-02-08 23:32:00,
2013-02-08 16:42:00,67.0,20.0,29.86,South,181,12.0,20.0,16,-99.99,,,-99.99,208.500000,,2013-02-08 23:42:00,
2013-02-08 16:52:00,67.0,20.0,29.86,South,181,12.0,20.0,16,-99.99,,,-99.99,208.500000,,2013-02-08 23:52:00,
2013-02-08 17:02:00,67.0,21.0,29.86,South,187,12.0,20.0,16,-99.99,,,-99.99,273.350006,,2013-02-09 00:02:00,
2013-02-08 17:11:00,68.0,20.0,29.85,South,183,11.0,17.0,16,-99.99,,,-99.99,204.320007,,2013-02-09 00:11:00,
2013-02-08 17:22:00,68.0,20.0,29.85,South,183,11.0,17.0,16,-99.99,,,-99.99,204.320007,,2013-02-09 00:22:00,
2013-02-08 17:32:00,67.0,21.0,29.85,South,184,11.0,19.0,17,-99.99,,,-99.99,119.239998,,2013-02-09 00:32:00,
2013-02-08 17:42:00,66.0,20.0,29.84,South,176,10.0,16.0,17,-99.99,,,-99.99,48.119999,,2013-02-09 00:42:00,
2013-02-08 17:52:00,66.0,20.0,29.84,South,176,10.0,16.0,17,-99.99,,,-99.99,48.119999,,2013-02-09 00:52:00,
2013-02-08 18:01:00,65.0,20.0,29.84,South,175,8.0,16.0,17,-99.99,,,-99.99,25.799999,,2013-02-09 01:01:00,
2013-02-08 18:11:00,65.0,20.0,29.84,South,175,8.0,16.0,17,-99.99,,,-99.99,25.799999,,2013-02-09 01:11:00,
2013-02-08 18:22:00,65.0,20.0,29.84,South,175,8.0,16.0,17,-99.99,,,-99.99,25.799999,,2013-02-09 01:22:00,
2013-02-08 18:32:00,61.0,20.0,29.83,SSE,155,6.0,8.0,20,-99.99,,,-99.99,1.390000,,2013-02-09 01:32:00,
2013-02-08 18:42:00,60.0,20.0,29.83,SSE,147,8.0,9.0,20,-99.99,,,-99.99,0.000000,,2013-02-09 01:42:00,
2013-02-08 18:52:00,60.0,20.0,29.83,SSE,147,8.0,9.0,20,-99.99,,,-99.99,0.000000,,2013-02-09 01:52:00,
2013-02-08 19:01:00,59.0,20.0,29.84,SSE,155,7.0,8.0,21,-99.99,,,-99.99,0.000000,,2013-02-09 02:01:00,
2013-02-08 19:11:00,58.0,20.0,29.84,SSE,157,6.0,7.0,22,-99.99,,,-99.99,0.000000,,2013-02-09 02:11:00,
2013-02-08 19:21:00,58.0,20.0,29.84,SSE,157,6.0,7.0,22,-99.99,,,-99.99,0.000000,,2013-02-09 02:21:00,
2013-02-08 19:32:00,57.0,20.0,29.84,South,176,6.0,7.0,22,-99.99,,,-99.99,0.000000,,2013-02-09 02:32:00,
2013-02-08 19:42:00,56.0,21.0,29.85,ESE,123,8.0,14.0,24,-99.99,,,-99.99,0.000000,,2013-02-09 02:42:00,
2013-02-08 19:53:00,56.0,21.0,29.85,ESE,123,8.0,14.0,24,-99.99,,,-99.99,0.000000,,2013-02-09 02:53:00,
2013-02-08 20:02:00,56.0,23.0,29.85,SE,130,3.0,5.0,27,-99.99,,,-99.99,0.000000,,2013-02-09 03:02:00,
2013-02-08 20:11:00,56.0,25.0,29.86,SE,143,2.0,3.0,30,-99.99,,,-99.99,0.000000,,2013-02-09 03:11:00,
2013-02-08 20:22:00,56.0,25.0,29.86,SE,143,2.0,3.0,30,-99.99,,,-99.99,0.000000,,2013-02-09 03:22:00,
2013-02-08 20:32:00,55.0,26.0,29.86,ESE,122,3.0,5.0,31,-99.99,,,-99.99,0.000000,,2013-02-09 03:32:00,
2013-02-08 20:42:00,53.0,26.0,29.86,ESE,106,4.0,6.0,33,-99.99,,,-99.99,0.000000,,2013-02-09 03:42:00,
2013-02-08 20:53:00,53.0,26.0,29.86,ESE,106,4.0,6.0,33,-99.99,,,-99.99,0.000000,,2013-02-09 03:53:00,
2013-02-08 21:02:00,53.0,27.0,29.86,SE,128,1.0,5.0,36,-99.99,,,-99.99,0.000000,,2013-02-09 04:02:00,
2013-02-08 21:12:00,54.0,28.0,29.86,SSW,195,0.0,6.0,36,-99.99,,,-99.99,0.000000,,2013-02-09 04:12:00,
2013-02-08 21:23:00,54.0,28.0,29.86,SSW,195,0.0,6.0,36,-99.99,,,-99.99,0.000000,,2013-02-09 04:23:00,
2013-02-08 21:32:00,54.0,27.0,29.86,South,190,4.0,6.0,35,-99.99,,,-99.99,0.000000,,2013-02-09 04:32:00,
2013-02-08 21:42:00,54.0,27.0,29.86,South,189,1.0,5.0,35,-99.99,,,-99.99,0.000000,,2013-02-09 04:42:00,
2013-02-08 21:52:00,54.0,27.0,29.86,South,189,1.0,5.0,35,-99.99,,,-99.99,0.000000,,2013-02-09 04:52:00,
2013-02-08 22:02:00,49.0,25.0,29.86,NNE,20,4.0,6.0,39,-99.99,,,-99.99,0.000000,,2013-02-09 05:02:00,
2013-02-08 22:12:00,50.0,28.0,29.85,NNE,20,1.0,4.0,41,-99.99,,,-99.99,0.000000,,2013-02-09 05:12:00,
2013-02-08 22:22:00,50.0,28.0,29.85,NNE,20,1.0,4.0,41,-99.99,,,-99.99,0.000000,,2013-02-09 05:22:00,
2013-02-08 22:32:00,52.0,28.0,29.85,NNE,20,1.0,2.0,38,-99.99,,,-99.99,0.000000,,2013-02-09 05:32:00,
2013-02-08 22:42:00,51.0,27.0,29.85,NE,55,2.0,6.0,38,-99.99,,,-99.99,0.000000,,2013-02-09 05:42:00,
2013-02-08 22:52:00,51.0,27.0,29.85,NE,55,2.0,6.0,38,-99.99,,,-99.99,0.000000,,2013-02-09 05:52:00,
2013-02-08 23:01:00,48.0,26.0,29.85,ESE,104,2.0,5.0,43,-99.99,,,-99.99,0.000000,,2013-02-09 06:01:00,
2013-02-08 23:11:00,49.0,27.0,29.84,SSE,163,7.0,9.0,41,-99.99,,,-99.99,0.000000,,2013-02-09 06:11:00,
2013-02-08 23:21:00,49.0,27.0,29.84,SSE,163,7.0,9.0,41,-99.99,,,-99.99,0.000000,,2013-02-09 06:21:00,
2013-02-08 23:31:00,49.0,27.0,29.84,South,178,6.0,10.0,41,-99.99,,,-99.99,0.000000,,2013-02-09 06:31:00,
2013-02-08 23:42:00,49.0,26.0,29.83,South,175,7.0,10.0,40,-99.99,,,-99.99,0.000000,,2013-02-09 06:42:00,
2013-02-08 23:52:00,49.0,26.0,29.83,South,175,7.0,10.0,40,-99.99,,,-99.99,0.000000,,2013-02-09 06:52:00,